KSDC Airport Information

Runway Information
Runway 10 Length 3800 ft width 60 ft
Elevation 0 ft Threshold 0 ft Heading 89
Runway 28 Length 3800 ft Width 60 ft
Elevation 0 ft Threshold 0 ft Heading 269
Airport Frequencies
Type A/D Name ROCHESTER Frequency 119.55 MHZ
Type UNIC Name CTAF/UNICO Frequency 122.8 MHZ
Airport Navaids
Airport Weather Information & NOTAM
ADDS - METARS form results

(0210 UTC 23 October 2021)
Data provider http://aviationweather.gov/metar/data/
 
METAR text: KSDC 230155Z AUTO 00000KT 10SM OVC042 05/02 A3004 RMK AO2
Conditions at: KSDC (WILLIAMSON/SODUS, NY, US) observed 0155 UTC 23 October 2021
Temperature: 5.0°C (41°F)
Dewpoint: 2.0°C (36°F) [RH = 81%]
Pressure (altimeter): 30.04 inches Hg (1017.4 mb)
Winds: calm
Visibility: 10 or more miles (16+ km)
Ceiling: 4200 feet AGL
Clouds: overcast cloud deck at 4200 feet AGL
Weather: automated observation with no human augmentation;
there may or may not be significant weather present at this time

METAR text: KSDC 230135Z AUTO 00000KT 10SM OVC040 04/02 A3004 RMK AO2
Conditions at: KSDC (WILLIAMSON/SODUS, NY, US) observed 0135 UTC 23 October 2021
Temperature: 4.0°C (39°F)
Dewpoint: 2.0°C (36°F) [RH = 87%]
Pressure (altimeter): 30.04 inches Hg (1017.4 mb)
Winds: calm
Visibility: 10 or more miles (16+ km)
Ceiling: 4000 feet AGL
Clouds: overcast cloud deck at 4000 feet AGL
Weather: automated observation with no human augmentation;
there may or may not be significant weather present at this time

METAR text: KSDC 230115Z AUTO 00000KT 10SM BKN040 03/01 A3003 RMK AO2
Conditions at: KSDC (WILLIAMSON/SODUS, NY, US) observed 0115 UTC 23 October 2021
Temperature: 3.0°C (37°F)
Dewpoint: 1.0°C (34°F) [RH = 87%]
Pressure (altimeter): 30.03 inches Hg (1017.0 mb)
Winds: calm
Visibility: 10 or more miles (16+ km)
Ceiling: 4000 feet AGL
Clouds: broken clouds at 4000 feet AGL
Weather: automated observation with no human augmentation;
there may or may not be significant weather present at this time